createdAt,value
2022-09-05T00:00:05.724Z,101343.63
2022-09-05T00:00:36.973Z,101349.06
2022-09-05T00:01:05.141Z,101351.03
2022-09-05T00:01:34.772Z,101337.72
2022-09-05T00:02:27.123Z,101351.16
2022-09-05T00:02:59.500Z,101330.16
2022-09-05T00:03:30.351Z,101348.56
2022-09-05T00:04:10.549Z,101335.75
2022-09-05T00:04:54.505Z,101336.94
2022-09-05T00:05:35.127Z,101344.88
2022-09-05T00:06:06.877Z,101328.69
2022-09-05T00:06:37.226Z,101345.34
2022-09-05T00:07:06.888Z,101342.38
2022-09-05T00:07:58.809Z,101343.25
2022-09-05T00:08:28.118Z,101338.19
2022-09-05T00:08:59.813Z,101335.72
2022-09-05T00:09:30.833Z,101327.69
2022-09-05T00:10:08.946Z,101330.78
2022-09-05T00:10:46.610Z,101338.56
2022-09-05T00:11:41.707Z,101342.50
2022-09-05T00:12:08.418Z,101337.06
2022-09-05T00:12:32.797Z,101340.66
2022-09-05T00:13:07.748Z,101346.06
2022-09-05T00:13:35.502Z,101343.25
2022-09-05T00:15:14.502Z,101335.13
2022-09-05T00:15:20.435Z,101312.63
2022-09-05T00:15:55.810Z,101345.81
2022-09-05T00:16:45.539Z,101337.81
2022-09-05T00:17:15.483Z,101347.56
2022-09-05T00:20:16.837Z,101338.66
2022-09-05T00:23:29.043Z,101346.06
2022-09-05T00:24:20.309Z,101319.88
2022-09-05T00:24:21.084Z,101339.66
2022-09-05T00:24:23.409Z,101342.38
2022-09-05T00:24:28.565Z,101334.72
2022-09-05T00:24:32.907Z,101343.47
2022-09-05T00:24:33.159Z,101344.59
2022-09-05T00:26:03.008Z,101338.31
2022-09-05T00:26:36.085Z,101325.31
2022-09-05T00:27:05.894Z,101345.78
2022-09-05T00:27:38.409Z,101333.25
2022-09-05T00:28:26.778Z,101341.50
2022-09-05T00:28:57.457Z,101334.44
2022-09-05T00:29:42.070Z,101343.59
2022-09-05T00:31:29.070Z,101341.59
2022-09-05T00:31:51.071Z,101337.25
2022-09-05T00:32:19.225Z,101337.16
2022-09-05T00:33:17.452Z,101341.75
2022-09-05T00:33:52.721Z,101334.53
2022-09-05T00:34:26.960Z,101340.09
2022-09-05T00:35:15.131Z,101333.69
2022-09-05T00:35:49.328Z,101332.91
2022-09-05T00:36:25.718Z,101334.66
2022-09-05T00:36:49.849Z,101341.94
2022-09-05T00:37:12.411Z,101335.53
2022-09-05T00:37:42.627Z,101347.34
2022-09-05T00:38:13.164Z,101336.75
2022-09-05T00:38:37.318Z,101324.53
2022-09-05T00:39:04.429Z,101336.75
2022-09-05T00:39:30.401Z,101337.84
2022-09-05T00:40:16.120Z,101334.91
2022-09-05T00:40:40.267Z,101340.19
2022-09-05T00:41:05.788Z,101339.94
2022-09-05T00:41:28.716Z,101333.72
2022-09-05T00:41:58.992Z,101337.81
2022-09-05T00:42:23.301Z,101342.75
2022-09-05T00:42:48.728Z,101334.50
2022-09-05T00:43:16.517Z,101338.84
2022-09-05T00:43:41.979Z,101338.59
2022-09-05T00:44:05.332Z,101332.31
2022-09-05T00:44:31.538Z,101342.28
2022-09-05T00:44:57.139Z,101338.50
2022-09-05T00:45:28.336Z,101347.50
2022-09-05T00:45:58.517Z,101337.63
2022-09-05T00:46:25.118Z,101334.91
2022-09-05T00:46:53.312Z,101349.34
2022-09-05T00:47:27.531Z,101339.69
2022-09-05T00:47:56.447Z,101334.41
2022-09-05T00:48:28.771Z,101336.09
2022-09-05T00:48:58.317Z,101327.44
2022-09-05T00:49:28.565Z,101337.56
2022-09-05T00:49:54.374Z,101322.03
2022-09-05T00:50:22.381Z,101341.88
2022-09-05T00:50:57.865Z,101327.94
2022-09-05T00:51:34.825Z,101330.53
2022-09-05T00:52:03.604Z,101325.34
2022-09-05T00:52:34.641Z,101339.53
2022-09-05T00:53:07.575Z,101332.16
2022-09-05T00:53:38.884Z,101337.19
2022-09-05T00:54:32.675Z,101340.28
2022-09-05T00:55:17.734Z,101342.38
2022-09-05T00:55:48.869Z,101339.53
2022-09-05T00:56:30.649Z,101343.25
2022-09-05T00:57:08.907Z,101337.06
2022-09-05T00:57:54.851Z,101347.91
2022-09-05T00:58:40.205Z,101341.38
2022-09-05T00:59:24.671Z,101338.03
2022-09-05T01:00:17.091Z,101334.81
2022-09-05T01:00:52.548Z,101331.25
2022-09-05T01:01:27.631Z,101343.09
2022-09-05T01:01:56.005Z,101332.47
2022-09-05T01:02:32.097Z,101343.31
2022-09-05T01:03:09.835Z,101339.88
2022-09-05T01:03:52.582Z,101339.09
2022-09-05T01:04:30.082Z,101331.09
2022-09-05T01:04:57.800Z,101338.34
2022-09-05T01:05:35.666Z,101342.69
2022-09-05T01:06:18.715Z,101337.25
2022-09-05T01:06:56.513Z,101338.34
2022-09-05T01:07:46.842Z,101326.88
2022-09-05T01:08:23.635Z,101334.16
2022-09-05T01:09:07.988Z,101335.25
2022-09-05T01:09:46.569Z,101332.66
2022-09-05T01:10:23.600Z,101338.59
2022-09-05T01:10:53.822Z,101322.94
2022-09-05T01:11:32.493Z,101341.06
2022-09-05T01:12:10.762Z,101333.69
2022-09-05T01:12:52.617Z,101339.22
2022-09-05T01:13:22.889Z,101333.94
2022-09-05T01:13:52.241Z,101324.78
2022-09-05T01:14:28.188Z,101339.34
2022-09-05T01:15:11.727Z,101334.91
2022-09-05T01:15:43.559Z,101328.88
2022-09-05T01:16:12.419Z,101331.69
2022-09-05T01:16:57.008Z,101335.38
2022-09-05T01:17:31.340Z,101339.06
2022-09-05T01:18:09.716Z,101333.88
2022-09-05T01:18:50.661Z,101341.75
2022-09-05T01:19:26.540Z,101331.91
2022-09-05T01:20:19.591Z,101340.03
2022-09-05T01:21:09.022Z,101338.44
2022-09-05T01:21:58.106Z,101325.75
2022-09-05T01:22:45.968Z,101343.59
2022-09-05T01:23:29.787Z,101333.78
2022-09-05T01:24:11.173Z,101340.53
2022-09-05T01:24:46.524Z,101337.72
2022-09-05T01:25:27.141Z,101341.41
2022-09-05T01:26:05.953Z,101340.53
2022-09-05T01:26:46.135Z,101315.72
2022-09-05T01:28:11.306Z,101337.47
2022-09-05T01:29:16.758Z,101345.44
2022-09-05T01:29:19.684Z,101345.59
2022-09-05T01:29:50.928Z,101347.53
2022-09-05T01:30:16.073Z,101341.38
2022-09-05T01:30:42.693Z,101319.72
2022-09-05T01:31:12.196Z,101335.44
2022-09-05T01:31:43.019Z,101332.59
2022-09-05T01:32:30.087Z,101338.44
2022-09-05T01:33:02.789Z,101348.50
2022-09-05T01:33:43.173Z,101351.88
2022-09-05T01:34:12.976Z,101339.50
2022-09-05T01:34:46.993Z,101347.06
2022-09-05T01:35:36.240Z,101348.94
2022-09-05T01:36:39.718Z,101353.47
2022-09-05T01:37:24.759Z,101350.16
2022-09-05T01:38:06.699Z,101354.94
2022-09-05T01:38:38.155Z,101349.72
2022-09-05T01:40:11.499Z,101353.41
2022-09-05T01:40:11.851Z,101344.66
2022-09-05T01:40:51.635Z,101345.63
2022-09-05T01:41:39.268Z,101349.97
2022-09-05T01:42:08.565Z,101353.41
2022-09-05T01:42:41.707Z,101352.78
2022-09-05T01:43:16.829Z,101349.31
2022-09-05T01:44:01.890Z,101345.75
2022-09-05T01:44:36.721Z,101347.38
2022-09-05T01:45:03.291Z,101341.94
2022-09-05T01:45:39.861Z,101348.22
2022-09-05T01:46:20.260Z,101344.00
2022-09-05T01:46:50.566Z,101348.34
2022-09-05T01:47:38.123Z,101346.50
2022-09-05T01:48:06.633Z,101347.38
2022-09-05T01:48:37.359Z,101345.63
2022-09-05T01:49:08.789Z,101343.03
2022-09-05T01:49:50.017Z,101339.56
2022-09-05T01:50:27.252Z,101341.19
2022-09-05T01:51:03.373Z,101346.72
2022-09-05T01:51:36.453Z,101345.75
2022-09-05T01:52:18.940Z,101342.03
2022-09-05T01:53:05.102Z,101338.56
2022-09-05T01:53:39.842Z,101345.53
2022-09-05T01:54:24.329Z,101344.88
2022-09-05T01:55:03.829Z,101338.78
2022-09-05T01:56:03.969Z,101332.84
2022-09-05T01:56:38.126Z,101334.22
2022-09-05T01:57:12.293Z,101333.72
2022-09-05T01:57:47.401Z,101347.16
2022-09-05T01:58:16.963Z,101332.22
2022-09-05T01:58:55.792Z,101340.25
2022-09-05T01:59:28.317Z,101342.84
2022-09-05T01:59:59.306Z,101342.72
2022-09-05T02:00:23.569Z,101335.69
2022-09-05T02:00:56.524Z,101332.84
2022-09-05T02:01:57.249Z,101339.28
2022-09-05T02:02:31.394Z,101332.75
2022-09-05T02:03:04.108Z,101333.59
2022-09-05T02:03:37.156Z,101335.56
2022-09-05T02:04:14.090Z,101338.25
2022-09-05T02:04:55.259Z,101335.69
2022-09-05T02:05:48.846Z,101336.78
2022-09-05T02:06:33.868Z,101326.41
2022-09-05T02:07:19.234Z,101337.25
2022-09-05T02:08:07.387Z,101323.50
2022-09-05T02:08:54.097Z,101336.25
2022-09-05T02:09:32.825Z,101336.38
2022-09-05T02:10:35.636Z,101341.81
2022-09-05T02:11:06.145Z,101334.03
2022-09-05T02:11:46.923Z,101333.16
2022-09-05T02:12:21.884Z,101339.66
2022-09-05T02:13:01.869Z,101342.25
2022-09-05T02:13:40.204Z,101336.72
2022-09-05T02:14:09.144Z,101332.28
2022-09-05T02:14:38.648Z,101323.84
2022-09-05T02:15:07.552Z,101335.00
2022-09-05T02:15:40.279Z,101332.72
2022-09-05T02:16:09.030Z,101322.25
2022-09-05T02:16:44.118Z,101340.75
2022-09-05T02:17:35.054Z,101338.91
2022-09-05T02:18:10.638Z,101335.97
2022-09-05T02:18:52.326Z,101335.97
2022-09-05T02:19:19.476Z,101342.25
2022-09-05T02:19:47.524Z,101328.06
2022-09-05T02:20:16.467Z,101335.72
2022-09-05T02:20:52.349Z,101340.41
2022-09-05T02:21:23.778Z,101336.84
2022-09-05T02:21:57.501Z,101339.44
2022-09-05T02:22:27.493Z,101339.53
2022-09-05T02:23:00.424Z,101330.03
2022-09-05T02:23:41.275Z,101333.59
2022-09-05T02:24:13.985Z,101331.97
2022-09-05T02:24:37.695Z,101328.53
2022-09-05T02:25:32.247Z,101331.22
2022-09-05T02:26:01.285Z,101333.81
2022-09-05T02:26:31.509Z,101333.81
2022-09-05T02:28:03.557Z,101330.78
2022-09-05T02:28:06.247Z,101332.72
2022-09-05T02:28:33.883Z,101330.13
2022-09-05T02:29:00.223Z,101337.28
2022-09-05T02:29:30.587Z,101337.38
2022-09-05T02:30:08.053Z,101336.41
2022-09-05T02:30:35.990Z,101334.47
2022-09-05T02:31:19.613Z,101331.00
2022-09-05T02:31:48.131Z,101331.75
2022-09-05T02:32:15.131Z,101336.94
2022-09-05T02:32:51.101Z,101337.91
2022-09-05T02:33:22.231Z,101336.22
2022-09-05T02:33:51.540Z,101335.19
2022-09-05T02:34:34.160Z,101335.34
2022-09-05T02:35:02.509Z,101335.53
2022-09-05T02:35:30.865Z,101340.00
2022-09-05T02:36:02.328Z,101325.47
2022-09-05T02:36:33.004Z,101338.16
2022-09-05T02:37:05.867Z,101339.00
2022-09-05T02:40:38.998Z,101324.94
2022-09-05T02:40:59.910Z,101335.19
2022-09-05T02:45:01.285Z,101341.16
2022-09-05T02:45:01.928Z,101340.28
2022-09-05T02:45:11.899Z,101333.25
2022-09-05T02:45:17.726Z,101338.56
2022-09-05T02:45:18.726Z,101318.56
2022-09-05T02:45:18.803Z,101335.72
2022-09-05T02:45:23.929Z,101336.72
2022-09-05T02:45:25.438Z,101332.72
2022-09-05T02:46:01.002Z,101339.75
2022-09-05T02:46:31.626Z,101337.91
2022-09-05T02:47:03.284Z,101339.75
2022-09-05T02:47:32.896Z,101337.38
2022-09-05T02:48:15.090Z,101338.38
2022-09-05T02:48:53.166Z,101341.31
2022-09-05T02:50:51.723Z,101337.72
2022-09-05T02:53:59.183Z,101338.84
2022-09-05T02:57:24.270Z,101342.28
2022-09-05T02:57:24.796Z,101338.72
2022-09-05T02:57:27.377Z,101338.84
2022-09-05T02:57:37.962Z,101332.53
2022-09-05T02:57:42.662Z,101331.78
2022-09-05T02:57:43.492Z,101340.44
2022-09-05T02:57:44.455Z,101344.88
2022-09-05T02:57:47.026Z,101340.56
2022-09-05T02:58:08.044Z,101339.56
2022-09-05T02:59:08.612Z,101344.16
2022-09-05T02:59:41.643Z,101344.16
2022-09-05T03:00:11.579Z,101346.00
2022-09-05T03:00:40.106Z,101338.19
2022-09-05T03:01:10.711Z,101348.03
2022-09-05T03:01:51.073Z,101347.06
2022-09-05T03:02:25.376Z,101347.81
2022-09-05T03:03:17.579Z,101340.44
2022-09-05T03:03:46.622Z,101347.69
2022-09-05T03:04:22.277Z,101351.50
2022-09-05T03:04:50.181Z,101346.84
2022-09-05T03:05:22.553Z,101349.44
2022-09-05T03:05:53.648Z,101351.16
2022-09-05T03:06:35.073Z,101352.13
2022-09-05T03:07:14.086Z,101348.47
2022-09-05T03:08:02.214Z,101349.31
2022-09-05T03:08:44.225Z,101346.84
2022-09-05T03:09:21.807Z,101352.91
2022-09-05T03:10:02.886Z,101348.47
2022-09-05T03:10:55.127Z,101346.00
2022-09-05T03:12:01.216Z,101347.06
2022-09-05T03:13:18.865Z,101342.63
2022-09-05T03:14:18.404Z,101341.13
2022-09-05T03:15:22.732Z,101336.03
2022-09-05T03:16:21.657Z,101344.41
2022-09-05T03:17:18.057Z,101344.41
2022-09-05T03:18:19.922Z,101351.50
2022-09-05T03:19:28.700Z,101349.69
2022-09-05T03:20:40.881Z,101351.41
2022-09-05T03:21:33.865Z,101346.78
2022-09-05T03:22:28.815Z,101350.09
2022-09-05T03:23:34.791Z,101344.59
2022-09-05T03:24:30.806Z,101342.84
2022-09-05T03:25:18.669Z,101339.50
2022-09-05T03:26:09.484Z,101340.59
2022-09-05T03:27:09.258Z,101343.19
2022-09-05T03:28:05.126Z,101337.00
2022-09-05T03:29:08.009Z,101337.53
2022-09-05T03:30:06.052Z,101343.63
2022-09-05T03:30:49.425Z,101337.34
2022-09-05T03:31:32.750Z,101345.31
2022-09-05T03:32:19.998Z,101346.44
2022-09-05T03:33:22.743Z,101345.47
2022-09-05T03:34:11.030Z,101347.50
2022-09-05T03:35:17.334Z,101336.03
2022-09-05T03:36:14.553Z,101347.84
2022-09-05T03:37:19.035Z,101342.56
2022-09-05T03:38:21.547Z,101341.88
2022-09-05T03:39:36.604Z,101342.19
2022-09-05T03:40:27.753Z,101346.75
2022-09-05T03:41:02.363Z,101347.94
2022-09-05T03:41:41.011Z,101349.78
2022-09-05T03:42:42.414Z,101344.50
2022-09-05T03:43:31.303Z,101345.34
2022-09-05T03:44:14.844Z,101343.63
2022-09-05T03:44:48.998Z,101354.66
2022-09-05T03:45:44.175Z,101352.09
2022-09-05T03:46:42.127Z,101345.47
2022-09-05T03:47:29.473Z,101345.25
2022-09-05T03:48:28.357Z,101346.22
2022-09-05T03:50:25.857Z,101351.63
2022-09-05T03:57:04.605Z,101345.25
2022-09-05T03:57:04.802Z,101344.28
2022-09-05T03:57:08.398Z,101348.72
2022-09-05T03:57:14.942Z,101353.25
2022-09-05T03:57:15.048Z,101339.72
2022-09-05T03:57:17.661Z,101344.38
2022-09-05T03:57:23.974Z,101347.22
2022-09-05T03:57:42.660Z,101351.41
2022-09-05T03:58:55.843Z,101351.28
2022-09-05T03:59:49.424Z,101340.59
2022-09-05T04:00:21.007Z,101346.75
2022-09-05T04:00:47.091Z,101316.03
2022-09-05T04:02:32.627Z,101344.28
2022-09-05T04:04:35.142Z,101344.59
2022-09-05T04:08:10.000Z,101340.28
2022-09-05T04:08:10.041Z,101341.31
2022-09-05T04:08:15.212Z,101343.72
2022-09-05T04:08:16.080Z,101330.19
2022-09-05T04:08:16.194Z,101341.31
2022-09-05T04:08:16.352Z,101349.44
2022-09-05T04:08:19.682Z,101323.03
2022-09-05T04:08:42.992Z,101338.09
2022-09-05T04:09:22.679Z,101350.44
2022-09-05T04:10:03.265Z,101344.91
2022-09-05T04:10:33.155Z,101346.75
2022-09-05T04:11:01.650Z,101353.91
2022-09-05T04:11:35.570Z,101342.19
2022-09-05T04:12:01.796Z,101349.28
2022-09-05T04:12:30.312Z,101352.00
2022-09-05T04:12:58.139Z,101347.44
2022-09-05T04:13:26.916Z,101350.88
2022-09-05T04:13:52.203Z,101348.41
2022-09-05T04:14:24.552Z,101347.53
2022-09-05T04:14:52.694Z,101349.28
2022-09-05T04:15:23.719Z,101344.84
2022-09-05T04:15:48.595Z,101336.25
2022-09-05T04:16:20.303Z,101348.19
2022-09-05T04:16:49.149Z,101349.06
2022-09-05T04:17:23.356Z,101346.44
2022-09-05T04:17:49.352Z,101350.88
2022-09-05T04:18:32.885Z,101347.31
2022-09-05T04:19:12.090Z,101342.75
2022-09-05T04:19:38.701Z,101342.22
2022-09-05T04:20:08.294Z,101346.34
2022-09-05T04:20:40.714Z,101347.41
2022-09-05T04:21:07.484Z,101344.69
2022-09-05T04:21:33.289Z,101344.94
2022-09-05T04:22:03.291Z,101350.03
2022-09-05T04:22:38.818Z,101353.59
2022-09-05T04:23:15.141Z,101349.91
2022-09-05T04:23:48.272Z,101356.31
2022-09-05T04:24:16.558Z,101354.34
2022-09-05T04:24:45.719Z,101349.91
2022-09-05T04:25:16.529Z,101355.34
2022-09-05T04:25:51.448Z,101353.47
2022-09-05T04:26:44.420Z,101351.63
2022-09-05T04:27:24.393Z,101353.06
2022-09-05T04:27:55.757Z,101351.09
2022-09-05T04:28:33.135Z,101347.50
2022-09-05T04:29:04.383Z,101333.47
2022-09-05T04:29:37.509Z,101354.56
2022-09-05T04:30:05.030Z,101350.97
2022-09-05T04:30:49.286Z,101357.16
2022-09-05T04:31:22.073Z,101364.28
2022-09-05T04:32:18.242Z,101355.34
2022-09-05T04:32:54.807Z,101350.03
2022-09-05T04:33:33.402Z,101351.97
2022-09-05T04:34:13.149Z,101355.63
2022-09-05T04:34:51.084Z,101353.94
2022-09-05T04:35:25.985Z,101354.78
2022-09-05T04:35:58.136Z,101358.34
2022-09-05T04:36:24.802Z,101343.63
2022-09-05T04:36:58.175Z,101357.38
2022-09-05T04:37:47.654Z,101359.97
2022-09-05T04:38:16.170Z,101361.72
2022-09-05T04:38:40.144Z,101354.47
2022-09-05T04:39:25.320Z,101358.78
2022-09-05T04:39:48.166Z,101358.66
2022-09-05T04:40:34.424Z,101359.66
2022-09-05T04:41:00.330Z,101360.50
2022-09-05T04:41:39.062Z,101361.59
2022-09-05T04:42:17.265Z,101363.66
2022-09-05T04:42:40.626Z,101360.84
2022-09-05T04:43:05.706Z,101355.88
2022-09-05T04:43:34.889Z,101365.63
2022-09-05T04:44:01.985Z,101358.34
2022-09-05T04:44:32.407Z,101352.09
2022-09-05T04:44:59.348Z,101356.50
2022-09-05T04:45:24.521Z,101363.75
2022-09-05T04:45:49.965Z,101360.31
2022-09-05T04:46:19.544Z,101360.22
2022-09-05T04:46:48.230Z,101358.25
2022-09-05T04:47:15.965Z,101358.34
2022-09-05T04:47:42.603Z,101360.84
2022-09-05T04:48:11.271Z,101362.69
2022-09-05T04:48:39.228Z,101353.94
2022-09-05T04:49:08.886Z,101358.13
2022-09-05T04:49:37.699Z,101361.81
2022-09-05T04:50:07.291Z,101361.72
2022-09-05T04:50:37.880Z,101362.69
2022-09-05T04:51:13.002Z,101372.75
2022-09-05T04:52:00.696Z,101363.75
2022-09-05T04:52:48.384Z,101347.00
2022-09-05T04:53:25.764Z,101365.97
2022-09-05T04:54:06.503Z,101367.66
2022-09-05T04:54:35.282Z,101366.25
2022-09-05T04:55:03.635Z,101364.66
2022-09-05T04:55:28.115Z,101366.16
2022-09-05T04:55:55.331Z,101366.16
2022-09-05T04:56:22.801Z,101370.69
2022-09-05T04:56:50.309Z,101371.47
2022-09-05T04:57:20.600Z,101376.00
2022-09-05T04:57:48.180Z,101365.28
2022-09-05T04:58:22.547Z,101366.16
2022-09-05T05:01:22.704Z,101378.81
2022-09-05T05:03:01.687Z,101356.75
2022-09-05T05:06:03.997Z,101370.69
2022-09-05T05:06:04.288Z,101377.09
2022-09-05T05:06:08.226Z,101369.84
2022-09-05T05:06:08.916Z,101366.38
2022-09-05T05:06:17.756Z,101370.69
2022-09-05T05:06:18.519Z,101369.84
2022-09-05T05:06:19.102Z,101364.56
2022-09-05T05:06:55.605Z,101377.84
2022-09-05T05:07:38.841Z,101366.47
2022-09-05T05:08:06.591Z,101365.53
2022-09-05T05:08:39.110Z,101369.72
2022-09-05T05:09:05.082Z,101372.44
2022-09-05T05:09:32.565Z,101368.97
2022-09-05T05:10:31.715Z,101375.78
2022-09-05T05:15:41.965Z,101373.22
2022-09-05T05:17:55.060Z,101370.50
2022-09-05T05:17:57.094Z,101373.97
2022-09-05T05:18:02.285Z,101373.94
2022-09-05T05:18:07.037Z,101375.16
2022-09-05T05:18:08.287Z,101383.16
2022-09-05T05:18:15.970Z,101385.75
2022-09-05T05:18:15.973Z,101387.47
2022-09-05T05:18:16.247Z,101378.63
2022-09-05T05:18:39.622Z,101388.44
2022-09-05T05:19:18.738Z,101393.66
2022-09-05T05:19:47.316Z,101390.19
2022-09-05T05:20:42.424Z,101388.34
2022-09-05T05:21:12.355Z,101389.31
2022-09-05T05:21:34.464Z,101379.50
2022-09-05T05:21:58.725Z,101378.63
2022-09-05T05:22:20.438Z,101387.91
2022-09-05T05:22:52.713Z,101394.31
2022-09-05T05:23:16.862Z,101387.06
2022-09-05T05:23:42.671Z,101383.69
2022-09-05T05:24:11.132Z,101385.44
2022-09-05T05:24:37.366Z,101388.03
2022-09-05T05:25:01.464Z,101388.22
2022-09-05T05:25:23.594Z,101388.13
2022-09-05T05:25:49.610Z,101394.53
2022-09-05T05:26:21.872Z,101383.69
2022-09-05T05:26:55.869Z,101383.69
2022-09-05T05:27:22.436Z,101376.78
2022-09-05T05:27:49.866Z,101386.41
2022-09-05T05:28:24.114Z,101386.31
2022-09-05T05:28:54.548Z,101389.09
2022-09-05T05:29:22.433Z,101380.13
2022-09-05T05:29:50.102Z,101382.94
2022-09-05T05:30:22.784Z,101383.91
2022-09-05T05:30:46.650Z,101383.50
2022-09-05T05:31:15.933Z,101387.91
2022-09-05T05:31:46.752Z,101376.13
2022-09-05T05:32:14.280Z,101387.16
2022-09-05T05:32:45.854Z,101379.38
2022-09-05T05:33:20.602Z,101388.38
2022-09-05T05:33:47.364Z,101382.09
2022-09-05T05:34:24.031Z,101389.97
2022-09-05T05:34:50.704Z,101381.84
2022-09-05T05:35:15.828Z,101386.53
2022-09-05T05:35:48.147Z,101389.97
2022-09-05T05:36:20.513Z,101393.56
2022-09-05T05:36:50.507Z,101388.91
2022-09-05T05:37:19.630Z,101391.38
2022-09-05T05:37:46.393Z,101384.38
2022-09-05T05:38:19.393Z,101391.47
2022-09-05T05:38:48.850Z,101389.66
2022-09-05T05:39:16.026Z,101389.66
2022-09-05T05:39:41.755Z,101397.66
2022-09-05T05:40:08.583Z,101394.72
2022-09-05T05:40:33.983Z,101391.94
2022-09-05T05:41:18.401Z,101383.03
2022-09-05T05:41:43.885Z,101388.13
2022-09-05T05:42:20.672Z,101390.09
2022-09-05T05:42:46.129Z,101389.31
2022-09-05T05:43:15.999Z,101395.72
2022-09-05T05:43:42.915Z,101383.50
2022-09-05T05:44:14.376Z,101391.16
2022-09-05T05:44:38.318Z,101392.03
2022-09-05T05:45:00.074Z,101392.91
2022-09-05T05:45:27.595Z,101392.69
2022-09-05T05:45:59.446Z,101391.50
2022-09-05T05:46:30.836Z,101388.03
2022-09-05T05:46:58.112Z,101383.25
2022-09-05T05:47:31.381Z,101391.25
2022-09-05T05:48:00.771Z,101389.53
2022-09-05T05:48:32.584Z,101388.78
2022-09-05T05:49:03.921Z,101384.13
2022-09-05T05:49:35.817Z,101392.13
2022-09-05T05:50:04.944Z,101400.16
2022-09-05T05:50:40.834Z,101388.56
2022-09-05T05:51:34.587Z,101390.28
2022-09-05T05:52:37.251Z,101397.66
2022-09-05T05:53:29.196Z,101389.66
2022-09-05T05:54:16.843Z,101395.06
2022-09-05T05:54:48.861Z,101395.63
2022-09-05T05:55:52.929Z,101393.22
2022-09-05T05:56:36.794Z,101398.66
2022-09-05T05:57:22.990Z,101398.41
2022-09-05T05:58:13.544Z,101398.75
2022-09-05T05:59:07.360Z,101396.47
2022-09-05T05:59:40.270Z,101393.63
2022-09-05T06:00:14.738Z,101397.06
2022-09-05T06:01:06.206Z,101402.34
2022-09-05T06:02:10.919Z,101406.53
2022-09-05T06:03:24.927Z,101402.13
2022-09-05T06:04:18.787Z,101411.72
2022-09-05T06:05:19.916Z,101391.50
2022-09-05T06:06:04.394Z,101410.69
2022-09-05T06:06:54.085Z,101415.25
2022-09-05T06:07:22.652Z,101411.00
2022-09-05T06:10:06.514Z,101414.44
2022-09-05T06:14:50.351Z,101412.44
2022-09-05T06:14:54.847Z,101413.06
2022-09-05T06:14:55.002Z,101416.41
2022-09-05T06:15:00.626Z,101413.28
2022-09-05T06:15:01.924Z,101409.94
2022-09-05T06:16:06.624Z,101409.47
2022-09-05T06:17:07.643Z,101408.09
2022-09-05T06:18:00.587Z,101407.94
2022-09-05T06:18:54.780Z,101411.75
2022-09-05T06:22:06.749Z,101406.53
2022-09-05T06:22:07.465Z,101410.13
2022-09-05T06:22:18.114Z,101398.22
2022-09-05T06:23:17.444Z,101401.66
2022-09-05T06:24:41.664Z,101404.03
2022-09-05T06:25:56.961Z,101409.94
2022-09-05T06:26:49.184Z,101405.91
2022-09-05T06:28:04.671Z,101407.53
2022-09-05T06:28:32.719Z,101406.00
2022-09-05T06:29:02.936Z,101415.09
2022-09-05T06:29:39.300Z,101404.28
2022-09-05T06:30:08.895Z,101402.78
2022-09-05T06:30:39.303Z,101404.03
2022-09-05T06:31:29.870Z,101405.16
2022-09-05T06:32:05.126Z,101404.72
2022-09-05T06:32:56.787Z,101410.31
2022-09-05T06:33:38.990Z,101401.13
2022-09-05T06:34:35.104Z,101407.53
2022-09-05T06:35:16.691Z,101407.19
2022-09-05T06:35:50.956Z,101410.44
2022-09-05T06:36:34.003Z,101400.44
2022-09-05T06:37:00.877Z,101406.66
2022-09-05T06:37:34.291Z,101408.34
2022-09-05T06:38:11.282Z,101406.41
2022-09-05T06:38:55.451Z,101410.44
2022-09-05T06:39:32.124Z,101408.81
2022-09-05T06:40:06.655Z,101402.19
2022-09-05T06:40:35.777Z,101408.47
2022-09-05T06:41:18.050Z,101408.91
2022-09-05T06:41:55.137Z,101404.13
2022-09-05T06:42:36.698Z,101410.56
2022-09-05T06:43:13.512Z,101403.75
2022-09-05T06:44:12.775Z,101407.81
2022-09-05T06:44:57.715Z,101402.94
2022-09-05T06:46:06.288Z,101408.69
2022-09-05T06:46:54.461Z,101406.66
2022-09-05T06:47:30.135Z,101407.72
2022-09-05T06:48:14.461Z,101403.16
2022-09-05T06:49:30.699Z,101407.91
2022-09-05T06:49:46.206Z,101409.00
2022-09-05T06:50:27.192Z,101415.94
2022-09-05T06:51:11.504Z,101409.41
2022-09-05T06:52:28.810Z,101417.53
2022-09-05T06:53:28.416Z,101402.38
2022-09-05T06:54:23.669Z,101411.78
2022-09-05T06:55:12.028Z,101405.53
2022-09-05T06:56:07.121Z,101410.66
2022-09-05T06:56:47.399Z,101411.38
2022-09-05T06:57:34.728Z,101419.50
2022-09-05T06:58:41.241Z,101417.53
2022-09-05T06:59:40.323Z,101418.25
2022-09-05T07:00:22.310Z,101410.47
2022-09-05T07:00:48.556Z,101418.03
2022-09-05T07:01:13.287Z,101419.78
2022-09-05T07:01:59.658Z,101410.78
2022-09-05T07:02:59.132Z,101416.31
2022-09-05T07:03:27.339Z,101420.09
2022-09-05T07:04:49.442Z,101405.63
2022-09-05T07:05:37.450Z,101415.06
2022-09-05T07:05:55.947Z,101410.69
2022-09-05T07:06:46.655Z,101411.56
2022-09-05T07:07:22.949Z,101413.59
2022-09-05T07:07:50.283Z,101408.28
2022-09-05T07:08:35.883Z,101414.66
2022-09-05T07:09:09.112Z,101407.56
2022-09-05T07:09:51.972Z,101395.69
2022-09-05T07:10:38.072Z,101404.28
2022-09-05T07:11:15.726Z,101411.00
2022-09-05T07:11:45.055Z,101405.91
2022-09-05T07:12:17.483Z,101410.66
2022-09-05T07:12:46.258Z,101409.78
2022-09-05T07:13:16.058Z,101408.06
2022-09-05T07:13:45.522Z,101408.06
2022-09-05T07:14:14.935Z,101405.50
2022-09-05T07:14:49.372Z,101414.81
2022-09-05T07:15:14.968Z,101410.00
2022-09-05T07:15:43.140Z,101417.19
2022-09-05T07:16:16.476Z,101411.13
2022-09-05T07:17:02.259Z,101415.13
2022-09-05T07:17:41.090Z,101407.63
2022-09-05T07:18:18.859Z,101427.13
2022-09-05T07:18:46.153Z,101416.06
2022-09-05T07:19:26.971Z,101415.72
2022-09-05T07:19:56.484Z,101421.78
2022-09-05T07:20:23.670Z,101417.13
2022-09-05T07:21:17.104Z,101413.41
2022-09-05T07:21:44.322Z,101418.38
2022-09-05T07:22:46.155Z,101412.06
2022-09-05T07:24:02.329Z,101417.91
2022-09-05T07:24:09.254Z,101416.59
2022-09-05T07:24:54.670Z,101419.31
2022-09-05T07:25:20.053Z,101412.38
2022-09-05T07:25:49.948Z,101424.22
2022-09-05T07:26:32.970Z,101421.16
2022-09-05T07:26:59.881Z,101423.50
2022-09-05T07:27:34.039Z,101417.00
2022-09-05T07:28:29.571Z,101417.16
2022-09-05T07:28:57.540Z,101425.06
2022-09-05T07:29:25.248Z,101418.88
2022-09-05T07:29:53.350Z,101419.66
2022-09-05T07:30:23.079Z,101413.88
2022-09-05T07:30:49.321Z,101415.25
2022-09-05T07:31:37.168Z,101425.75
2022-09-05T07:32:02.951Z,101424.28
2022-09-05T07:32:26.084Z,101422.59
2022-09-05T07:32:52.247Z,101419.56
2022-09-05T07:33:18.943Z,101423.22
2022-09-05T07:33:44.491Z,101414.56
2022-09-05T07:34:20.739Z,101418.66